THY141 LTFM-LTAC
Flight info
| Callsign | THY141 |
|---|---|
| Flight time | 0h 39m |
| Altitude | 27000 |
| Route | VICEN T380 ASMAP L333 LATGA |
| Aircraft | A321/M-SDE3FGHIRWY/LB1 |
Departure
| Time | 2026-02-18 23:21 |
|---|---|
| Airport | İstanbul Airport (LTFM) |
Arrival
| Time | 2026-02-19 00:00 |
|---|---|
| Airport | Esenboğa International Airport (LTAC) |
| Time | Latitude | Longitude | Altitude | Speed | Heading |
|---|---|---|---|---|---|
| 2026-02-18 22:52 | 41.27553 | 28.73314 | 331 ft | 0 kts | 179° |
| 2026-02-18 23:08 | 41.27555 | 28.73314 | 334 ft | 1 kts | 179° |
| 2026-02-18 23:08 | 41.27572 | 28.73313 | 334 ft | 3 kts | 180° |
| 2026-02-18 23:08 | 41.27590 | 28.73316 | 329 ft | 3 kts | 218° |
| 2026-02-18 23:09 | 41.27599 | 28.73347 | 329 ft | 3 kts | 269° |
| 2026-02-18 23:09 | 41.27599 | 28.73362 | 332 ft | 0 kts | 269° |
| 2026-02-18 23:11 | 41.27599 | 28.73358 | 332 ft | 1 kts | 269° |
| 2026-02-18 23:11 | 41.27598 | 28.73334 | 332 ft | 3 kts | 269° |
| 2026-02-18 23:12 | 41.27598 | 28.73294 | 333 ft | 5 kts | 269° |
| 2026-02-18 23:12 | 41.27597 | 28.73240 | 331 ft | 7 kts | 269° |
| 2026-02-18 23:12 | 41.27596 | 28.73172 | 332 ft | 8 kts | 269° |
| 2026-02-18 23:12 | 41.27595 | 28.73090 | 332 ft | 10 kts | 269° |
| 2026-02-18 23:13 | 41.27660 | 28.72930 | 332 ft | 10 kts | 343° |
| 2026-02-18 23:13 | 41.27706 | 28.72948 | 333 ft | 11 kts | 18° |
| 2026-02-18 23:13 | 41.27783 | 28.72967 | 332 ft | 12 kts | 1° |
| 2026-02-18 23:14 | 41.27870 | 28.72966 | 331 ft | 13 kts | 359° |
| 2026-02-18 23:14 | 41.27966 | 28.72963 | 334 ft | 14 kts | 359° |
| 2026-02-18 23:14 | 41.28070 | 28.72960 | 331 ft | 16 kts | 359° |
| 2026-02-18 23:14 | 41.28182 | 28.72957 | 331 ft | 17 kts | 359° |
| 2026-02-18 23:15 | 41.28301 | 28.72955 | 331 ft | 18 kts | 360° |
| 2026-02-18 23:15 | 41.28428 | 28.72954 | 330 ft | 19 kts | 359° |
| 2026-02-18 23:15 | 41.28561 | 28.72950 | 330 ft | 20 kts | 359° |
| 2026-02-18 23:15 | 41.28698 | 28.72946 | 332 ft | 18 kts | 358° |
| 2026-02-18 23:16 | 41.28828 | 28.72942 | 333 ft | 19 kts | 359° |
| 2026-02-18 23:16 | 41.28965 | 28.72937 | 331 ft | 20 kts | 358° |
| 2026-02-18 23:16 | 41.29109 | 28.72932 | 332 ft | 21 kts | 359° |
| 2026-02-18 23:16 | 41.29253 | 28.72929 | 331 ft | 18 kts | 359° |
| 2026-02-18 23:17 | 41.29512 | 28.72926 | 331 ft | 20 kts | 359° |
| 2026-02-18 23:17 | 41.29647 | 28.72925 | 332 ft | 18 kts | 359° |
| 2026-02-18 23:17 | 41.29742 | 28.72921 | 331 ft | 9 kts | 353° |
| 2026-02-18 23:18 | 41.29791 | 28.72871 | 330 ft | 10 kts | 293° |
| 2026-02-18 23:18 | 41.29816 | 28.72875 | 333 ft | 4 kts | 64° |
| 2026-02-18 23:18 | 41.29833 | 28.72909 | 332 ft | 5 kts | 41° |
| 2026-02-18 23:18 | 41.29865 | 28.72903 | 332 ft | 5 kts | 323° |
| 2026-02-18 23:19 | 41.29879 | 28.72856 | 332 ft | 6 kts | 272° |
| 2026-02-18 23:19 | 41.29879 | 28.72791 | 332 ft | 8 kts | 270° |
| 2026-02-18 23:19 | 41.29879 | 28.72713 | 333 ft | 9 kts | 270° |
| 2026-02-18 23:19 | 41.29878 | 28.72621 | 331 ft | 11 kts | 267° |
| 2026-02-18 23:20 | 41.29875 | 28.72517 | 334 ft | 12 kts | 268° |
| 2026-02-18 23:20 | 41.29842 | 28.72445 | 333 ft | 9 kts | 194° |
| 2026-02-18 23:20 | 41.29772 | 28.72444 | 332 ft | 12 kts | 180° |
| 2026-02-18 23:20 | 41.29534 | 28.72446 | 334 ft | 69 kts | 180° |
| 2026-02-18 23:21 | 41.27704 | 28.72458 | 416 ft | 178 kts | 183° |
| 2026-02-18 23:21 | 41.26448 | 28.72477 | 1034 ft | 180 kts | 183° |
| 2026-02-18 23:21 | 41.25196 | 28.72441 | 1798 ft | 179 kts | 190° |
| 2026-02-18 23:22 | 41.23977 | 28.72311 | 2492 ft | 174 kts | 193° |
| 2026-02-18 23:22 | 41.22773 | 28.72179 | 3129 ft | 173 kts | 188° |
| 2026-02-18 23:22 | 41.21555 | 28.72208 | 3671 ft | 182 kts | 182° |
| 2026-02-18 23:22 | 41.20218 | 28.72376 | 3938 ft | 204 kts | 180° |
| 2026-02-18 23:23 | 41.18728 | 28.72470 | 4143 ft | 223 kts | 192° |
| 2026-02-18 23:23 | 41.17259 | 28.71710 | 4297 ft | 237 kts | 222° |
| 2026-02-18 23:23 | 41.15951 | 28.70245 | 4706 ft | 253 kts | 226° |
| 2026-02-18 23:23 | 41.14627 | 28.68666 | 5425 ft | 258 kts | 227° |
| 2026-02-18 23:24 | 41.13243 | 28.67164 | 6182 ft | 265 kts | 216° |
| 2026-02-18 23:24 | 41.11519 | 28.66196 | 6910 ft | 275 kts | 197° |
| 2026-02-18 23:24 | 41.09590 | 28.66007 | 7675 ft | 284 kts | 178° |
| 2026-02-18 23:24 | 41.07621 | 28.66351 | 8451 ft | 286 kts | 176° |
| 2026-02-18 23:25 | 41.03660 | 28.67065 | 10081 ft | 288 kts | 177° |
| 2026-02-18 23:25 | 41.01617 | 28.67420 | 10412 ft | 307 kts | 177° |
| 2026-02-18 23:25 | 40.99419 | 28.67795 | 10557 ft | 329 kts | 177° |
| 2026-02-18 23:26 | 40.97085 | 28.68243 | 10714 ft | 350 kts | 171° |
| 2026-02-18 23:26 | 40.94780 | 28.69475 | 11140 ft | 366 kts | 151° |
| 2026-02-18 23:26 | 40.92821 | 28.71691 | 11661 ft | 378 kts | 131° |
| 2026-02-18 23:26 | 40.91483 | 28.74704 | 12150 ft | 385 kts | 109° |
| 2026-02-18 23:27 | 40.90970 | 28.78177 | 12670 ft | 387 kts | 89° |
| 2026-02-18 23:27 | 40.90913 | 28.81754 | 13222 ft | 392 kts | 87° |
| 2026-02-18 23:27 | 40.90756 | 28.85386 | 13776 ft | 400 kts | 95° |
| 2026-02-18 23:27 | 40.90148 | 28.89001 | 14268 ft | 407 kts | 105° |
| 2026-02-18 23:28 | 40.89296 | 28.92543 | 14766 ft | 411 kts | 105° |
| 2026-02-18 23:28 | 40.88422 | 28.96159 | 15287 ft | 415 kts | 105° |
| 2026-02-18 23:28 | 40.87542 | 28.99799 | 15812 ft | 418 kts | 105° |
| 2026-02-18 23:28 | 40.86655 | 29.03473 | 16320 ft | 421 kts | 104° |
| 2026-02-18 23:29 | 40.84861 | 29.10917 | 17304 ft | 429 kts | 104° |
| 2026-02-18 23:29 | 40.83951 | 29.14692 | 17794 ft | 433 kts | 104° |
| 2026-02-18 23:29 | 40.82963 | 29.18475 | 18258 ft | 440 kts | 110° |
| 2026-02-18 23:30 | 40.81507 | 29.22053 | 18652 ft | 447 kts | 122° |
| 2026-02-18 23:30 | 40.79536 | 29.25246 | 19056 ft | 451 kts | 135° |
| 2026-02-18 23:30 | 40.77133 | 29.27905 | 19466 ft | 452 kts | 148° |
| 2026-02-18 23:30 | 40.74396 | 29.29926 | 19871 ft | 450 kts | 160° |
| 2026-02-18 23:31 | 40.71500 | 29.31322 | 20288 ft | 450 kts | 164° |
| 2026-02-18 23:31 | 40.68639 | 29.33087 | 20693 ft | 458 kts | 152° |
| 2026-02-18 23:31 | 40.66039 | 29.35537 | 21117 ft | 463 kts | 140° |
| 2026-02-18 23:31 | 40.63779 | 29.38584 | 21528 ft | 467 kts | 129° |
| 2026-02-18 23:32 | 40.61945 | 29.42122 | 21927 ft | 469 kts | 117° |
| 2026-02-18 23:32 | 40.60629 | 29.46040 | 22333 ft | 469 kts | 105° |
| 2026-02-18 23:32 | 40.59912 | 29.50209 | 22725 ft | 466 kts | 92° |
| 2026-02-18 23:32 | 40.59819 | 29.54443 | 23111 ft | 462 kts | 80° |
| 2026-02-18 23:33 | 40.60594 | 29.62854 | 23848 ft | 466 kts | 77° |
| 2026-02-18 23:33 | 40.60988 | 29.67099 | 24224 ft | 468 kts | 77° |
| 2026-02-18 23:33 | 40.61376 | 29.71357 | 24612 ft | 470 kts | 77° |
| 2026-02-18 23:34 | 40.61760 | 29.75636 | 24962 ft | 472 kts | 78° |
| 2026-02-18 23:34 | 40.62144 | 29.79934 | 25299 ft | 474 kts | 78° |
| 2026-02-18 23:34 | 40.62528 | 29.84243 | 25675 ft | 475 kts | 78° |
| 2026-02-18 23:34 | 40.62916 | 29.88578 | 26011 ft | 478 kts | 78° |
| 2026-02-18 23:35 | 40.63307 | 29.92932 | 26352 ft | 479 kts | 78° |
| 2026-02-18 23:35 | 40.63698 | 29.97291 | 26692 ft | 481 kts | 78° |
| 2026-02-18 23:35 | 40.64090 | 30.01679 | 27020 ft | 483 kts | 78° |
| 2026-02-18 23:35 | 40.64481 | 30.06069 | 27103 ft | 480 kts | 78° |
| 2026-02-18 23:36 | 40.64860 | 30.10411 | 27108 ft | 476 kts | 78° |
| 2026-02-18 23:36 | 40.65236 | 30.14733 | 27111 ft | 475 kts | 78° |
| 2026-02-18 23:36 | 40.65614 | 30.19054 | 27106 ft | 474 kts | 79° |
| 2026-02-18 23:36 | 40.65988 | 30.23324 | 27107 ft | 475 kts | 78° |
| 2026-02-18 23:37 | 40.66389 | 30.32031 | 27098 ft | 481 kts | 90° |
| 2026-02-18 23:37 | 40.66055 | 30.36423 | 27091 ft | 482 kts | 93° |
| 2026-02-18 23:37 | 40.65686 | 30.40808 | 27087 ft | 482 kts | 93° |
| 2026-02-18 23:38 | 40.65319 | 30.45196 | 27070 ft | 482 kts | 93° |
| 2026-02-18 23:38 | 40.64953 | 30.49582 | 27069 ft | 482 kts | 93° |
| 2026-02-18 23:38 | 40.64589 | 30.53977 | 27060 ft | 483 kts | 93° |
| 2026-02-18 23:38 | 40.64224 | 30.58373 | 27057 ft | 483 kts | 93° |
| 2026-02-18 23:39 | 40.63855 | 30.62770 | 27060 ft | 483 kts | 93° |
| 2026-02-18 23:39 | 40.63483 | 30.67162 | 27060 ft | 483 kts | 93° |
| 2026-02-18 23:39 | 40.63006 | 30.71548 | 27065 ft | 485 kts | 99° |
| 2026-02-18 23:39 | 40.62155 | 30.75849 | 27063 ft | 486 kts | 104° |
| 2026-02-18 23:40 | 40.61240 | 30.80145 | 27066 ft | 487 kts | 104° |
| 2026-02-18 23:40 | 40.60330 | 30.84429 | 27060 ft | 486 kts | 104° |
| 2026-02-18 23:40 | 40.59423 | 30.88712 | 27060 ft | 486 kts | 104° |
| 2026-02-18 23:40 | 40.58516 | 30.93007 | 27058 ft | 486 kts | 104° |
| 2026-02-18 23:41 | 40.56702 | 31.01579 | 27072 ft | 487 kts | 104° |
| 2026-02-18 23:41 | 40.55790 | 31.05870 | 27072 ft | 487 kts | 104° |
| 2026-02-18 23:41 | 40.54885 | 31.10093 | 27062 ft | 486 kts | 104° |
| 2026-02-18 23:42 | 40.53961 | 31.14371 | 27062 ft | 486 kts | 104° |
| 2026-02-18 23:42 | 40.53036 | 31.18645 | 27064 ft | 486 kts | 104° |
| 2026-02-18 23:42 | 40.52114 | 31.22923 | 27057 ft | 485 kts | 104° |
| 2026-02-18 23:42 | 40.51194 | 31.27188 | 27062 ft | 485 kts | 105° |
| 2026-02-18 23:43 | 40.50274 | 31.31450 | 27066 ft | 485 kts | 105° |
| 2026-02-18 23:43 | 40.49350 | 31.35714 | 27075 ft | 485 kts | 105° |
| 2026-02-18 23:43 | 40.48425 | 31.39973 | 27087 ft | 483 kts | 105° |
| 2026-02-18 23:43 | 40.47505 | 31.44204 | 27067 ft | 482 kts | 105° |
| 2026-02-18 23:44 | 40.46583 | 31.48436 | 27066 ft | 481 kts | 105° |
| 2026-02-18 23:44 | 40.45660 | 31.52658 | 27065 ft | 481 kts | 105° |
| 2026-02-18 23:44 | 40.44737 | 31.56873 | 27049 ft | 480 kts | 105° |
| 2026-02-18 23:44 | 40.43825 | 31.61049 | 26864 ft | 471 kts | 105° |
| 2026-02-18 23:45 | 40.42041 | 31.69197 | 25917 ft | 460 kts | 105° |
| 2026-02-18 23:45 | 40.41160 | 31.73212 | 25359 ft | 456 kts | 105° |
| 2026-02-18 23:45 | 40.40286 | 31.77184 | 24814 ft | 452 kts | 105° |
| 2026-02-18 23:46 | 40.39417 | 31.81122 | 24268 ft | 448 kts | 105° |
| 2026-02-18 23:46 | 40.38551 | 31.85029 | 23745 ft | 444 kts | 106° |
| 2026-02-18 23:46 | 40.37691 | 31.88899 | 23166 ft | 439 kts | 107° |
| 2026-02-18 23:46 | 40.36852 | 31.92665 | 22700 ft | 432 kts | 107° |
| 2026-02-18 23:47 | 40.36016 | 31.96423 | 22245 ft | 426 kts | 107° |
| 2026-02-18 23:47 | 40.35191 | 32.00111 | 21820 ft | 418 kts | 107° |
| 2026-02-18 23:47 | 40.34376 | 32.03740 | 21381 ft | 412 kts | 107° |
| 2026-02-18 23:47 | 40.33720 | 32.07355 | 20962 ft | 406 kts | 98° |
| 2026-02-18 23:48 | 40.33516 | 32.11011 | 20540 ft | 399 kts | 89° |
| 2026-02-18 23:48 | 40.33754 | 32.14601 | 20111 ft | 393 kts | 80° |
| 2026-02-18 23:48 | 40.34169 | 32.18110 | 19675 ft | 387 kts | 81° |
| 2026-02-18 23:48 | 40.34574 | 32.21581 | 19247 ft | 383 kts | 81° |
| 2026-02-18 23:49 | 40.35348 | 32.28437 | 18380 ft | 378 kts | 81° |
| 2026-02-18 23:49 | 40.35683 | 32.31848 | 17903 ft | 376 kts | 86° |
| 2026-02-18 23:49 | 40.35646 | 32.35258 | 17460 ft | 372 kts | 97° |
| 2026-02-18 23:50 | 40.35191 | 32.38575 | 17011 ft | 368 kts | 106° |
| 2026-02-18 23:50 | 40.34549 | 32.41817 | 16569 ft | 366 kts | 106° |
| 2026-02-18 23:50 | 40.33913 | 32.45033 | 16116 ft | 363 kts | 105° |
| 2026-02-18 23:50 | 40.33282 | 32.48237 | 15663 ft | 361 kts | 105° |
| 2026-02-18 23:51 | 40.32659 | 32.51410 | 15227 ft | 359 kts | 105° |
| 2026-02-18 23:51 | 40.32040 | 32.54568 | 14792 ft | 357 kts | 106° |
| 2026-02-18 23:51 | 40.31187 | 32.57610 | 14334 ft | 354 kts | 117° |
| 2026-02-18 23:51 | 40.29945 | 32.60366 | 13877 ft | 349 kts | 128° |
| 2026-02-18 23:52 | 40.28351 | 32.62682 | 13249 ft | 347 kts | 142° |
| 2026-02-18 23:52 | 40.26377 | 32.64466 | 12604 ft | 343 kts | 156° |
| 2026-02-18 23:52 | 40.24190 | 32.65569 | 12147 ft | 333 kts | 171° |
| 2026-02-18 23:52 | 40.21927 | 32.65971 | 11681 ft | 324 kts | 184° |
| 2026-02-18 23:53 | 40.17617 | 32.65018 | 10767 ft | 311 kts | 199° |
| 2026-02-18 23:53 | 40.15528 | 32.64343 | 10430 ft | 305 kts | 199° |
| 2026-02-18 23:53 | 40.13502 | 32.63701 | 10227 ft | 295 kts | 199° |
| 2026-02-18 23:54 | 40.11550 | 32.63087 | 10149 ft | 282 kts | 199° |
| 2026-02-18 23:54 | 40.09623 | 32.62915 | 10068 ft | 279 kts | 173° |
| 2026-02-18 23:54 | 40.07873 | 32.63924 | 9931 ft | 277 kts | 143° |
| 2026-02-18 23:54 | 40.06714 | 32.65911 | 9411 ft | 281 kts | 110° |
| 2026-02-18 23:55 | 40.06226 | 32.68375 | 8948 ft | 279 kts | 101° |
| 2026-02-18 23:55 | 40.05784 | 32.70837 | 8529 ft | 278 kts | 104° |
| 2026-02-18 23:55 | 40.05053 | 32.73156 | 8113 ft | 276 kts | 120° |
| 2026-02-18 23:55 | 40.03968 | 32.75209 | 7723 ft | 273 kts | 127° |
| 2026-02-18 23:56 | 40.02855 | 32.77187 | 7339 ft | 269 kts | 127° |
| 2026-02-18 23:56 | 40.01758 | 32.79143 | 6948 ft | 266 kts | 127° |
| 2026-02-18 23:56 | 40.00846 | 32.81248 | 6409 ft | 270 kts | 109° |
| 2026-02-18 23:56 | 40.00492 | 32.83547 | 6188 ft | 255 kts | 90° |
| 2026-02-18 23:57 | 40.01217 | 32.87699 | 5781 ft | 219 kts | 57° |
| 2026-02-18 23:57 | 40.02074 | 32.89270 | 5518 ft | 206 kts | 43° |
| 2026-02-18 23:57 | 40.03118 | 32.90446 | 5268 ft | 191 kts | 30° |
| 2026-02-18 23:58 | 40.04157 | 32.91433 | 5004 ft | 179 kts | 30° |
| 2026-02-18 23:58 | 40.05154 | 32.92377 | 4763 ft | 174 kts | 31° |
| 2026-02-18 23:58 | 40.06110 | 32.93285 | 4512 ft | 166 kts | 30° |
| 2026-02-18 23:58 | 40.07037 | 32.94164 | 4279 ft | 164 kts | 32° |
| 2026-02-18 23:59 | 40.07953 | 32.95034 | 4007 ft | 162 kts | 33° |
| 2026-02-18 23:59 | 40.08869 | 32.95904 | 3777 ft | 163 kts | 33° |
| 2026-02-18 23:59 | 40.09773 | 32.96767 | 3539 ft | 160 kts | 32° |
| 2026-02-18 23:59 | 40.10678 | 32.97625 | 3360 ft | 161 kts | 32° |
| 2026-02-19 00:00 | 40.11584 | 32.98488 | 3156 ft | 161 kts | 32° |
| 2026-02-19 00:00 | 40.12439 | 32.99284 | 3135 ft | 127 kts | 37° |
| 2026-02-19 00:00 | 40.12903 | 32.99739 | 3135 ft | 40 kts | 36° |
| 2026-02-19 00:00 | 40.12977 | 32.99814 | 3125 ft | 8 kts | 46° |
| 2026-02-19 00:01 | 40.13070 | 33.00044 | 3134 ft | 15 kts | 68° |
| 2026-02-19 00:01 | 40.13086 | 33.00148 | 3134 ft | 9 kts | 110° |
| 2026-02-19 00:01 | 40.13044 | 33.00190 | 3134 ft | 8 kts | 200° |
| 2026-02-19 00:02 | 40.12991 | 33.00156 | 3134 ft | 9 kts | 223° |
| 2026-02-19 00:02 | 40.12945 | 33.00096 | 3134 ft | 10 kts | 221° |
| 2026-02-19 00:02 | 40.12887 | 33.00039 | 3134 ft | 11 kts | 216° |
| 2026-02-19 00:02 | 40.12823 | 32.99978 | 3134 ft | 12 kts | 216° |
| 2026-02-19 00:03 | 40.12750 | 32.99911 | 3134 ft | 13 kts | 216° |
| 2026-02-19 00:03 | 40.12671 | 32.99837 | 3134 ft | 15 kts | 215° |
| 2026-02-19 00:03 | 40.12585 | 32.99755 | 3134 ft | 16 kts | 216° |
| 2026-02-19 00:03 | 40.12491 | 32.99665 | 3134 ft | 17 kts | 216° |
| 2026-02-19 00:04 | 40.12391 | 32.99570 | 3134 ft | 19 kts | 216° |
| 2026-02-19 00:04 | 40.12285 | 32.99464 | 3134 ft | 20 kts | 217° |
| 2026-02-19 00:04 | 40.12180 | 32.99359 | 3134 ft | 20 kts | 217° |
| 2026-02-19 00:04 | 40.12073 | 32.99257 | 3134 ft | 19 kts | 215° |
| 2026-02-19 00:05 | 40.11862 | 32.99060 | 3134 ft | 16 kts | 213° |
| 2026-02-19 00:05 | 40.11764 | 32.99097 | 3134 ft | 15 kts | 141° |
| 2026-02-19 00:05 | 40.11706 | 32.99133 | 3134 ft | 13 kts | 161° |
| 2026-02-19 00:06 | 40.11642 | 32.99173 | 3134 ft | 4 kts | 148° |
| 2026-02-19 00:06 | 40.11625 | 32.99187 | 3134 ft | 0 kts | 148° |